sensor_id;sensor_type;location;lat;lon;timestamp;pressure;altitude;pressure_sealevel;temperature;humidity
12759;BME280;20944;47.048;15.390;2024-03-06T00:01:22;97422.34;;;8.64;100.00
12759;BME280;20944;47.048;15.390;2024-03-06T00:03:51;97402.47;;;8.57;100.00
12759;BME280;20944;47.048;15.390;2024-03-06T00:06:19;97427.38;;;8.72;100.00
12759;BME280;20944;47.048;15.390;2024-03-06T00:08:48;97440.31;;;8.76;100.00
12759;BME280;20944;47.048;15.390;2024-03-06T00:11:16;97438.66;;;8.72;100.00
12759;BME280;20944;47.048;15.390;2024-03-06T00:13:45;97412.97;;;8.54;100.00
12759;BME280;20944;47.048;15.390;2024-03-06T00:16:16;97448.94;;;8.80;100.00
12759;BME280;20944;47.048;15.390;2024-03-06T00:18:46;97434.44;;;8.67;100.00
12759;BME280;20944;47.048;15.390;2024-03-06T00:21:14;97444.75;;;8.73;100.00
12759;BME280;20944;47.048;15.390;2024-03-06T00:23:43;97462.13;;;8.75;100.00
12759;BME280;20944;47.048;15.390;2024-03-06T00:26:13;97456.66;;;8.84;100.00
12759;BME280;20944;47.048;15.390;2024-03-06T00:28:41;97451.53;;;8.81;100.00
12759;BME280;20944;47.048;15.390;2024-03-06T00:31:09;97442.28;;;8.68;100.00
12759;BME280;20944;47.048;15.390;2024-03-06T00:33:40;97460.66;;;8.63;100.00
12759;BME280;20944;47.048;15.390;2024-03-06T00:36:08;97459.13;;;8.55;100.00
12759;BME280;20944;47.048;15.390;2024-03-06T00:38:37;97458.09;;;8.62;100.00
12759;BME280;20944;47.048;15.390;2024-03-06T00:41:05;97447.00;;;8.51;100.00
12759;BME280;20944;47.048;15.390;2024-03-06T00:43:34;97457.25;;;8.60;100.00
12759;BME280;20944;47.048;15.390;2024-03-06T00:46:02;97445.88;;;8.62;100.00
12759;BME280;20944;47.048;15.390;2024-03-06T00:48:31;97428.13;;;8.40;100.00
12759;BME280;20944;47.048;15.390;2024-03-06T00:51:01;97453.91;;;8.53;100.00
12759;BME280;20944;47.048;15.390;2024-03-06T00:53:29;97453.94;;;8.52;100.00
12759;BME280;20944;47.048;15.390;2024-03-06T00:55:58;97417.84;;;8.30;100.00
12759;BME280;20944;47.048;15.390;2024-03-06T00:58:26;97441.03;;;8.46;100.00
12759;BME280;20944;47.048;15.390;2024-03-06T01:00:55;97367.59;;;8.21;100.00
12759;BME280;20944;47.048;15.390;2024-03-06T01:03:25;97456.31;;;8.62;100.00
12759;BME280;20944;47.048;15.390;2024-03-06T01:05:53;97451.88;;;8.66;100.00
12759;BME280;20944;47.048;15.390;2024-03-06T01:08:23;97455.56;;;8.57;100.00
12759;BME280;20944;47.048;15.390;2024-03-06T01:10:52;97441.97;;;8.43;100.00
12759;BME280;20944;47.048;15.390;2024-03-06T01:13:21;97454.84;;;8.51;100.00
12759;BME280;20944;47.048;15.390;2024-03-06T01:15:49;97448.91;;;8.44;100.00
12759;BME280;20944;47.048;15.390;2024-03-06T01:18:18;97453.13;;;8.50;100.00
12759;BME280;20944;47.048;15.390;2024-03-06T01:20:46;97429.06;;;8.34;100.00
12759;BME280;20944;47.048;15.390;2024-03-06T01:23:15;97452.16;;;8.54;100.00
12759;BME280;20944;47.048;15.390;2024-03-06T01:25:45;97454.91;;;8.48;100.00
12759;BME280;20944;47.048;15.390;2024-03-06T01:28:13;97377.63;;;8.00;100.00
12759;BME280;20944;47.048;15.390;2024-03-06T01:30:42;97443.13;;;8.28;100.00
12759;BME280;20944;47.048;15.390;2024-03-06T01:33:10;97460.41;;;8.34;100.00
12759;BME280;20944;47.048;15.390;2024-03-06T01:35:39;97450.91;;;8.31;100.00
12759;BME280;20944;47.048;15.390;2024-03-06T01:38:07;97454.59;;;8.21;100.00
12759;BME280;20944;47.048;15.390;2024-03-06T01:40:37;97441.81;;;8.07;100.00
12759;BME280;20944;47.048;15.390;2024-03-06T01:43:18;97434.94;;;8.03;100.00
12759;BME280;20944;47.048;15.390;2024-03-06T01:45:47;97241.34;;;6.67;100.00
12759;BME280;20944;47.048;15.390;2024-03-06T01:48:16;97435.72;;;8.08;100.00
12759;BME280;20944;47.048;15.390;2024-03-06T01:50:45;97447.88;;;8.09;100.00
12759;BME280;20944;47.048;15.390;2024-03-06T01:53:15;97446.16;;;8.08;100.00
12759;BME280;20944;47.048;15.390;2024-03-06T01:55:45;97445.25;;;8.11;100.00
12759;BME280;20944;47.048;15.390;2024-03-06T01:58:17;97428.84;;;8.04;100.00
12759;BME280;20944;47.048;15.390;2024-03-06T02:00:49;97444.22;;;8.17;100.00
12759;BME280;20944;47.048;15.390;2024-03-06T02:03:18;97443.50;;;8.10;100.00
12759;BME280;20944;47.048;15.390;2024-03-06T02:05:48;97366.38;;;7.56;100.00
12759;BME280;20944;47.048;15.390;2024-03-06T02:08:16;97420.53;;;7.87;100.00
12759;BME280;20944;47.048;15.390;2024-03-06T02:10:45;97410.19;;;7.82;100.00
12759;BME280;20944;47.048;15.390;2024-03-06T02:13:14;97422.97;;;7.95;100.00
12759;BME280;20944;47.048;15.390;2024-03-06T02:15:45;97441.75;;;8.10;100.00
12759;BME280;20944;47.048;15.390;2024-03-06T02:18:14;97439.31;;;8.03;100.00
12759;BME280;20944;47.048;15.390;2024-03-06T02:20:44;97434.22;;;7.98;100.00
12759;BME280;20944;47.048;15.390;2024-03-06T02:23:14;97400.84;;;7.71;100.00
12759;BME280;20944;47.048;15.390;2024-03-06T02:25:44;97430.78;;;7.95;100.00
12759;BME280;20944;47.048;15.390;2024-03-06T02:28:14;97435.91;;;7.99;100.00
12759;BME280;20944;47.048;15.390;2024-03-06T02:30:43;97387.75;;;7.72;100.00
12759;BME280;20944;47.048;15.390;2024-03-06T02:33:12;97431.84;;;7.86;100.00
12759;BME280;20944;47.048;15.390;2024-03-06T02:35:41;97430.09;;;7.85;100.00
12759;BME280;20944;47.048;15.390;2024-03-06T02:38:13;97426.72;;;7.81;100.00
12759;BME280;20944;47.048;15.390;2024-03-06T02:40:43;97411.16;;;7.77;100.00
12759;BME280;20944;47.048;15.390;2024-03-06T02:43:12;97424.81;;;7.90;100.00
12759;BME280;20944;47.048;15.390;2024-03-06T02:45:40;97416.94;;;7.93;100.00
12759;BME280;20944;47.048;15.390;2024-03-06T02:48:09;97411.84;;;7.85;100.00
12759;BME280;20944;47.048;15.390;2024-03-06T02:50:37;97410.28;;;7.76;100.00
12759;BME280;20944;47.048;15.390;2024-03-06T02:53:06;97395.09;;;7.53;100.00
12759;BME280;20944;47.048;15.390;2024-03-06T02:55:36;97412.22;;;7.68;100.00
12759;BME280;20944;47.048;15.390;2024-03-06T02:58:04;97418.19;;;7.72;100.00
12759;BME280;20944;47.048;15.390;2024-03-06T03:00:32;97421.78;;;7.66;100.00
12759;BME280;20944;47.048;15.390;2024-03-06T03:03:01;97427.00;;;7.68;100.00
12759;BME280;20944;47.048;15.390;2024-03-06T03:05:30;97341.69;;;7.31;100.00
12759;BME280;20944;47.048;15.390;2024-03-06T03:08:00;97411.44;;;7.63;100.00
12759;BME280;20944;47.048;15.390;2024-03-06T03:10:30;97423.28;;;7.78;100.00
12759;BME280;20944;47.048;15.390;2024-03-06T03:13:03;97323.66;;;7.20;100.00
12759;BME280;20944;47.048;15.390;2024-03-06T03:15:31;97433.19;;;7.62;100.00
12759;BME280;20944;47.048;15.390;2024-03-06T03:18:00;97425.44;;;7.57;100.00
12759;BME280;20944;47.048;15.390;2024-03-06T03:20:28;97422.91;;;7.53;100.00
12759;BME280;20944;47.048;15.390;2024-03-06T03:22:57;97435.94;;;7.54;100.00
12759;BME280;20944;47.048;15.390;2024-03-06T03:25:26;97429.88;;;7.52;100.00
12759;BME280;20944;47.048;15.390;2024-03-06T03:27:55;97425.53;;;7.54;100.00
12759;BME280;20944;47.048;15.390;2024-03-06T03:30:25;97424.59;;;7.57;100.00
12759;BME280;20944;47.048;15.390;2024-03-06T03:32:53;97407.59;;;7.38;100.00
12759;BME280;20944;47.048;15.390;2024-03-06T03:35:22;97407.63;;;7.35;100.00
12759;BME280;20944;47.048;15.390;2024-03-06T03:37:52;97428.25;;;7.48;100.00
12759;BME280;20944;47.048;15.390;2024-03-06T03:40:20;97430.78;;;7.51;100.00
12759;BME280;20944;47.048;15.390;2024-03-06T03:42:50;97427.34;;;7.49;100.00
12759;BME280;20944;47.048;15.390;2024-03-06T03:45:18;97433.22;;;7.61;100.00
12759;BME280;20944;47.048;15.390;2024-03-06T03:47:48;97434.88;;;7.65;100.00
12759;BME280;20944;47.048;15.390;2024-03-06T03:50:17;97434.81;;;7.68;100.00
12759;BME280;20944;47.048;15.390;2024-03-06T03:52:46;97431.50;;;7.58;100.00
12759;BME280;20944;47.048;15.390;2024-03-06T03:55:14;97423.78;;;7.53;100.00
12759;BME280;20944;47.048;15.390;2024-03-06T03:57:43;97416.94;;;7.48;100.00
12759;BME280;20944;47.048;15.390;2024-03-06T04:00:13;97382.88;;;7.12;100.00
12759;BME280;20944;47.048;15.390;2024-03-06T04:02:41;97428.41;;;7.39;100.00
12759;BME280;20944;47.048;15.390;2024-03-06T04:05:11;97424.78;;;7.46;100.00
12759;BME280;20944;47.048;15.390;2024-03-06T04:07:40;97422.28;;;7.42;100.00
12759;BME280;20944;47.048;15.390;2024-03-06T04:10:09;97426.38;;;7.55;100.00
12759;BME280;20944;47.048;15.390;2024-03-06T04:12:38;97426.50;;;7.49;100.00
12759;BME280;20944;47.048;15.390;2024-03-06T04:15:08;97434.31;;;7.47;100.00
12759;BME280;20944;47.048;15.390;2024-03-06T04:17:37;97437.03;;;7.43;100.00
12759;BME280;20944;47.048;15.390;2024-03-06T04:20:08;97426.66;;;7.40;100.00
12759;BME280;20944;47.048;15.390;2024-03-06T04:22:40;97435.22;;;7.46;100.00
12759;BME280;20944;47.048;15.390;2024-03-06T04:25:09;97439.63;;;7.43;100.00
12759;BME280;20944;47.048;15.390;2024-03-06T04:27:37;97419.69;;;7.42;100.00
12759;BME280;20944;47.048;15.390;2024-03-06T04:30:07;97408.47;;;7.37;100.00
12759;BME280;20944;47.048;15.390;2024-03-06T04:32:36;97439.41;;;7.55;100.00
12759;BME280;20944;47.048;15.390;2024-03-06T04:35:05;97441.16;;;7.54;100.00
12759;BME280;20944;47.048;15.390;2024-03-06T04:37:34;97441.16;;;7.54;100.00
12759;BME280;20944;47.048;15.390;2024-03-06T04:40:05;97442.91;;;7.52;100.00
12759;BME280;20944;47.048;15.390;2024-03-06T04:42:35;97448.09;;;7.55;100.00
12759;BME280;20944;47.048;15.390;2024-03-06T04:45:09;97416.28;;;7.35;100.00
12759;BME280;20944;47.048;15.390;2024-03-06T04:47:38;97360.44;;;7.03;100.00
12759;BME280;20944;47.048;15.390;2024-03-06T04:50:08;97450.47;;;7.66;100.00
12759;BME280;20944;47.048;15.390;2024-03-06T04:52:38;97460.84;;;7.69;100.00
12759;BME280;20944;47.048;15.390;2024-03-06T04:55:09;97443.63;;;7.62;100.00
12759;BME280;20944;47.048;15.390;2024-03-06T04:57:38;97437.22;;;7.32;100.00
12759;BME280;20944;47.048;15.390;2024-03-06T05:00:09;97449.25;;;7.39;100.00
12759;BME280;20944;47.048;15.390;2024-03-06T05:02:38;97466.34;;;7.54;100.00
12759;BME280;20944;47.048;15.390;2024-03-06T05:05:24;97469.88;;;7.51;100.00
12759;BME280;20944;47.048;15.390;2024-03-06T05:08:10;97472.34;;;7.61;100.00
12759;BME280;20944;47.048;15.390;2024-03-06T05:10:59;97474.16;;;7.54;100.00
12759;BME280;20944;47.048;15.390;2024-03-06T05:13:46;97468.09;;;7.53;100.00
12759;BME280;20944;47.048;15.390;2024-03-06T05:16:31;97444.81;;;7.44;100.00
12759;BME280;20944;47.048;15.390;2024-03-06T05:19:17;97466.34;;;7.54;100.00
12759;BME280;20944;47.048;15.390;2024-03-06T05:22:04;97438.81;;;7.39;100.00
12759;BME280;20944;47.048;15.390;2024-03-06T05:24:50;97431.13;;;7.33;100.00
12759;BME280;20944;47.048;15.390;2024-03-06T05:27:39;97455.09;;;7.52;100.00
12759;BME280;20944;47.048;15.390;2024-03-06T05:30:24;97476.66;;;7.62;100.00
12759;BME280;20944;47.048;15.390;2024-03-06T05:33:10;97413.91;;;7.24;100.00
12759;BME280;20944;47.048;15.390;2024-03-06T05:35:56;97447.28;;;7.52;100.00
12759;BME280;20944;47.048;15.390;2024-03-06T05:38:42;97473.09;;;7.66;100.00
12759;BME280;20944;47.048;15.390;2024-03-06T05:41:27;97446.56;;;7.44;100.00
12759;BME280;20944;47.048;15.390;2024-03-06T05:44:15;97445.63;;;7.46;100.00
12759;BME280;20944;47.048;15.390;2024-03-06T05:47:01;97475.66;;;7.69;100.00
12759;BME280;20944;47.048;15.390;2024-03-06T05:49:47;97479.94;;;7.71;100.00
12759;BME280;20944;47.048;15.390;2024-03-06T05:52:33;97457.78;;;7.47;100.00
12759;BME280;20944;47.048;15.390;2024-03-06T05:55:19;97462.53;;;7.72;100.00
12759;BME280;20944;47.048;15.390;2024-03-06T05:58:05;97466.84;;;7.74;100.00
12759;BME280;20944;47.048;15.390;2024-03-06T06:00:41;97373.97;;;7.22;100.00
12759;BME280;20944;47.048;15.390;2024-03-06T06:03:10;97462.03;;;7.54;100.00
12759;BME280;20944;47.048;15.390;2024-03-06T06:05:39;97491.28;;;7.69;100.00
12759;BME280;20944;47.048;15.390;2024-03-06T06:08:08;97494.56;;;7.80;100.00
12759;BME280;20944;47.048;15.390;2024-03-06T06:10:37;97482.16;;;7.91;100.00
12759;BME280;20944;47.048;15.390;2024-03-06T06:13:05;97498.69;;;7.90;100.00
12759;BME280;20944;47.048;15.390;2024-03-06T06:15:34;97480.59;;;7.82;100.00
12759;BME280;20944;47.048;15.390;2024-03-06T06:18:04;97497.06;;;7.84;100.00
12759;BME280;20944;47.048;15.390;2024-03-06T06:20:33;97497.13;;;7.81;100.00
12759;BME280;20944;47.048;15.390;2024-03-06T06:23:02;97479.94;;;7.71;100.00
12759;BME280;20944;47.048;15.390;2024-03-06T06:25:30;97505.56;;;7.96;100.00
12759;BME280;20944;47.048;15.390;2024-03-06T06:27:59;97498.69;;;7.90;100.00
12759;BME280;20944;47.048;15.390;2024-03-06T06:30:29;97500.41;;;7.91;100.00
12759;BME280;20944;47.048;15.390;2024-03-06T06:32:57;97455.81;;;7.62;100.00
12759;BME280;20944;47.048;15.390;2024-03-06T06:35:27;97504.72;;;7.94;100.00
12759;BME280;20944;47.048;15.390;2024-03-06T06:37:56;97497.81;;;7.91;100.00
12759;BME280;20944;47.048;15.390;2024-03-06T06:40:24;97500.34;;;7.96;100.00
12759;BME280;20944;47.048;15.390;2024-03-06T06:42:54;97500.28;;;7.97;100.00
12759;BME280;20944;47.048;15.390;2024-03-06T06:45:23;97513.19;;;8.06;100.00
12759;BME280;20944;47.048;15.390;2024-03-06T06:47:51;97507.88;;;8.09;100.00
12759;BME280;20944;47.048;15.390;2024-03-06T06:50:20;97501.16;;;7.99;100.00
12759;BME280;20944;47.048;15.390;2024-03-06T06:52:54;97513.97;;;8.10;100.00
12759;BME280;20944;47.048;15.390;2024-03-06T06:55:23;97504.41;;;8.09;100.00
12759;BME280;20944;47.048;15.390;2024-03-06T06:57:51;97519.78;;;8.23;100.00
12759;BME280;20944;47.048;15.390;2024-03-06T07:00:20;97518.00;;;8.26;100.00
12759;BME280;20944;47.048;15.390;2024-03-06T07:02:50;97521.47;;;8.27;100.00
12759;BME280;20944;47.048;15.390;2024-03-06T07:05:19;97512.81;;;8.25;100.00
12759;BME280;20944;47.048;15.390;2024-03-06T07:07:47;97502.38;;;8.25;100.00
12759;BME280;20944;47.048;15.390;2024-03-06T07:10:22;97487.56;;;8.25;100.00
12759;BME280;20944;47.048;15.390;2024-03-06T07:12:50;97522.78;;;8.49;100.00
12759;BME280;20944;47.048;15.390;2024-03-06T07:15:19;97514.06;;;8.50;100.00
12759;BME280;20944;47.048;15.390;2024-03-06T07:17:47;97514.81;;;8.55;100.00
12759;BME280;20944;47.048;15.390;2024-03-06T07:20:17;97512.94;;;8.62;100.00
12759;BME280;20944;47.048;15.390;2024-03-06T07:22:45;97518.97;;;8.64;100.00
12759;BME280;20944;47.048;15.390;2024-03-06T07:25:14;97522.66;;;8.55;100.00
12759;BME280;20944;47.048;15.390;2024-03-06T07:27:44;97529.31;;;8.69;100.00
12759;BME280;20944;47.048;15.390;2024-03-06T07:30:13;97508.78;;;8.52;100.00
12759;BME280;20944;47.048;15.390;2024-03-06T07:32:41;97483.84;;;8.38;100.00
12759;BME280;20944;47.048;15.390;2024-03-06T07:35:10;97469.34;;;8.24;100.00
12759;BME280;20944;47.048;15.390;2024-03-06T07:37:39;97535.44;;;8.66;100.00
12759;BME280;20944;47.048;15.390;2024-03-06T07:40:09;97521.72;;;8.58;100.00
12759;BME280;20944;47.048;15.390;2024-03-06T07:42:37;97509.56;;;8.57;100.00
12759;BME280;20944;47.048;15.390;2024-03-06T07:45:08;97517.22;;;8.64;100.00
12759;BME280;20944;47.048;15.390;2024-03-06T07:47:37;97532.78;;;8.69;100.00
12759;BME280;20944;47.048;15.390;2024-03-06T07:50:06;97531.38;;;8.53;100.00
12759;BME280;20944;47.048;15.390;2024-03-06T07:52:38;97478.06;;;8.21;100.00
12759;BME280;20944;47.048;15.390;2024-03-06T07:55:07;97533.16;;;8.52;100.00
12759;BME280;20944;47.048;15.390;2024-03-06T07:57:35;97536.59;;;8.53;100.00
12759;BME280;20944;47.048;15.390;2024-03-06T08:00:05;97523.66;;;8.48;100.00
12759;BME280;20944;47.048;15.390;2024-03-06T08:02:42;97537.47;;;8.53;100.00
12759;BME280;20944;47.048;15.390;2024-03-06T08:05:11;97527.16;;;8.47;100.00
12759;BME280;20944;47.048;15.390;2024-03-06T08:07:40;97547.06;;;8.53;100.00
12759;BME280;20944;47.048;15.390;2024-03-06T08:10:09;97539.31;;;8.50;100.00
12759;BME280;20944;47.048;15.390;2024-03-06T08:12:40;97522.66;;;8.54;100.00
12759;BME280;20944;47.048;15.390;2024-03-06T08:15:12;97519.00;;;8.62;100.00
12759;BME280;20944;47.048;15.390;2024-03-06T08:17:43;97539.56;;;8.78;100.00
12759;BME280;20944;47.048;15.390;2024-03-06T08:20:12;97536.09;;;8.77;100.00
12759;BME280;20944;47.048;15.390;2024-03-06T08:22:41;97542.75;;;8.90;100.00
12759;BME280;20944;47.048;15.390;2024-03-06T08:25:11;97538.53;;;8.85;100.00
12759;BME280;20944;47.048;15.390;2024-03-06T08:27:41;97515.06;;;8.83;100.00
12759;BME280;20944;47.048;15.390;2024-03-06T08:30:10;97549.28;;;9.10;100.00
12759;BME280;20944;47.048;15.390;2024-03-06T08:32:40;97533.78;;;9.02;100.00
12759;BME280;20944;47.048;15.390;2024-03-06T08:35:12;97529.53;;;8.97;100.00
12759;BME280;20944;47.048;15.390;2024-03-06T08:37:47;97554.97;;;9.27;100.00
12759;BME280;20944;47.048;15.390;2024-03-06T08:40:16;97560.91;;;9.34;100.00
12759;BME280;20944;47.048;15.390;2024-03-06T08:42:45;97560.88;;;9.35;100.00
12759;BME280;20944;47.048;15.390;2024-03-06T08:45:16;97567.09;;;9.30;100.00
12759;BME280;20944;47.048;15.390;2024-03-06T08:47:46;97550.50;;;9.32;100.00
12759;BME280;20944;47.048;15.390;2024-03-06T08:50:15;97566.00;;;9.40;100.00
12759;BME280;20944;47.048;15.390;2024-03-06T08:52:45;97563.28;;;9.44;100.00
12759;BME280;20944;47.048;15.390;2024-03-06T08:55:13;97564.75;;;9.56;100.00
12759;BME280;20944;47.048;15.390;2024-03-06T08:57:42;97565.47;;;9.61;100.00
12759;BME280;20944;47.048;15.390;2024-03-06T09:00:11;97556.75;;;9.61;100.00
12759;BME280;20944;47.048;15.390;2024-03-06T09:02:41;97573.16;;;9.67;100.00
12759;BME280;20944;47.048;15.390;2024-03-06T09:05:10;97565.28;;;9.69;100.00
12759;BME280;20944;47.048;15.390;2024-03-06T09:07:42;97557.59;;;9.61;100.00
12759;BME280;20944;47.048;15.390;2024-03-06T09:10:10;97551.81;;;9.50;100.00
12759;BME280;20944;47.048;15.390;2024-03-06T09:12:39;97559.47;;;9.58;100.00
12759;BME280;20944;47.048;15.390;2024-03-06T09:15:08;97562.03;;;9.59;100.00
12759;BME280;20944;47.048;15.390;2024-03-06T09:17:38;97574.00;;;9.69;100.00
12759;BME280;20944;47.048;15.390;2024-03-06T09:20:08;97574.75;;;9.73;100.00
12759;BME280;20944;47.048;15.390;2024-03-06T09:22:39;97577.41;;;9.71;100.00
12759;BME280;20944;47.048;15.390;2024-03-06T09:25:11;97563.75;;;9.60;100.00
12759;BME280;20944;47.048;15.390;2024-03-06T09:27:42;97576.97;;;9.56;100.00
12759;BME280;20944;47.048;15.390;2024-03-06T09:30:12;97572.75;;;9.49;100.00
12759;BME280;20944;47.048;15.390;2024-03-06T09:32:43;97571.88;;;9.50;100.00
12759;BME280;20944;47.048;15.390;2024-03-06T09:35:12;97541.91;;;9.27;100.00
12759;BME280;20944;47.048;15.390;2024-03-06T09:37:45;97496.28;;;9.03;100.00
12759;BME280;20944;47.048;15.390;2024-03-06T09:40:25;97578.59;;;9.60;100.00
12759;BME280;20944;47.048;15.390;2024-03-06T09:42:53;97553.72;;;9.42;100.00
12759;BME280;20944;47.048;15.390;2024-03-06T09:45:22;97564.03;;;9.48;100.00
12759;BME280;20944;47.048;15.390;2024-03-06T09:47:51;97580.53;;;9.52;100.00
12759;BME280;20944;47.048;15.390;2024-03-06T09:50:23;97482.50;;;8.97;100.00
12759;BME280;20944;47.048;15.390;2024-03-06T09:52:55;97504.94;;;9.07;100.00
12759;BME280;20944;47.048;15.390;2024-03-06T09:55:25;97579.78;;;9.46;100.00
12759;BME280;20944;47.048;15.390;2024-03-06T09:57:54;97582.44;;;9.45;100.00
12759;BME280;20944;47.048;15.390;2024-03-06T10:00:23;97535.28;;;9.12;100.00
12759;BME280;20944;47.048;15.390;2024-03-06T10:02:57;97496.84;;;8.80;100.00
12759;BME280;20944;47.048;15.390;2024-03-06T10:05:27;97581.69;;;9.40;100.00
12759;BME280;20944;47.048;15.390;2024-03-06T10:07:57;97585.06;;;9.45;100.00
12759;BME280;20944;47.048;15.390;2024-03-06T10:10:29;97559.66;;;9.50;100.00
12759;BME280;20944;47.048;15.390;2024-03-06T10:12:57;97565.59;;;9.55;100.00
12759;BME280;20944;47.048;15.390;2024-03-06T10:15:27;97574.84;;;9.70;100.00
12759;BME280;20944;47.048;15.390;2024-03-06T10:18:10;97561.69;;;9.73;100.00
12759;BME280;20944;47.048;15.390;2024-03-06T10:20:40;97574.44;;;9.87;100.00
12759;BME280;20944;47.048;15.390;2024-03-06T10:23:12;97582.97;;;9.93;100.00
12759;BME280;20944;47.048;15.390;2024-03-06T10:25:44;97478.44;;;9.55;100.00
12759;BME280;20944;47.048;15.390;2024-03-06T10:28:12;97563.38;;;10.08;100.00
12759;BME280;20944;47.048;15.390;2024-03-06T10:30:41;97537.00;;;9.83;100.00
12759;BME280;20944;47.048;15.390;2024-03-06T10:33:11;97569.06;;;10.25;100.00
12759;BME280;20944;47.048;15.390;2024-03-06T10:35:40;97569.66;;;10.35;100.00
12759;BME280;20944;47.048;15.390;2024-03-06T10:38:10;97572.16;;;10.40;100.00
12759;BME280;20944;47.048;15.390;2024-03-06T10:40:40;97568.50;;;10.45;100.00
12759;BME280;20944;47.048;15.390;2024-03-06T10:43:11;97522.91;;;10.20;100.00
12759;BME280;20944;47.048;15.390;2024-03-06T10:45:41;97570.22;;;10.46;100.00
12759;BME280;20944;47.048;15.390;2024-03-06T10:48:14;97552.50;;;10.25;100.00
12759;BME280;20944;47.048;15.390;2024-03-06T10:50:43;97571.88;;;10.49;100.00
12759;BME280;20944;47.048;15.390;2024-03-06T10:53:13;97532.13;;;10.35;100.00
12759;BME280;20944;47.048;15.390;2024-03-06T10:55:49;97553.34;;;10.57;100.00
12759;BME280;20944;47.048;15.390;2024-03-06T10:58:20;97569.63;;;10.66;100.00
12759;BME280;20944;47.048;15.390;2024-03-06T11:00:48;97548.13;;;10.55;100.00
12759;BME280;20944;47.048;15.390;2024-03-06T11:03:19;97541.22;;;10.52;100.00
12759;BME280;20944;47.048;15.390;2024-03-06T11:05:47;97547.00;;;10.64;100.00
12759;BME280;20944;47.048;15.390;2024-03-06T11:08:19;97546.91;;;10.67;100.00
12759;BME280;20944;47.048;15.390;2024-03-06T11:10:48;97556.03;;;10.83;100.00
12759;BME280;20944;47.048;15.390;2024-03-06T11:13:23;97511.91;;;10.69;100.00
12759;BME280;20944;47.048;15.390;2024-03-06T11:15:57;97528.63;;;10.93;100.00
12759;BME280;20944;47.048;15.390;2024-03-06T11:18:41;97516.53;;;10.89;100.00
12759;BME280;20944;47.048;15.390;2024-03-06T11:21:29;97536.22;;;11.02;100.00
12759;BME280;20944;47.048;15.390;2024-03-06T11:24:16;97550.06;;;11.07;100.00
12759;BME280;20944;47.048;15.390;2024-03-06T11:26:47;97547.44;;;11.07;100.00
12759;BME280;20944;47.048;15.390;2024-03-06T11:29:19;97540.84;;;10.94;100.00
12759;BME280;20944;47.048;15.390;2024-03-06T11:32:07;97543.56;;;10.91;100.00
12759;BME280;20944;47.048;15.390;2024-03-06T11:34:37;97533.06;;;10.91;100.00
12759;BME280;20944;47.048;15.390;2024-03-06T11:37:06;97533.25;;;10.85;100.00
12759;BME280;20944;47.048;15.390;2024-03-06T11:39:38;97496.75;;;10.51;100.00
12759;BME280;20944;47.048;15.390;2024-03-06T11:42:08;97513.25;;;10.83;100.00
12759;BME280;20944;47.048;15.390;2024-03-06T11:44:52;97480.09;;;10.82;100.00
12759;BME280;20944;47.048;15.390;2024-03-06T11:47:22;97534.47;;;11.03;100.00
12759;BME280;20944;47.048;15.390;2024-03-06T11:49:52;97492.28;;;10.83;100.00
12759;BME280;20944;47.048;15.390;2024-03-06T11:52:22;97493.66;;;10.94;100.00
12759;BME280;20944;47.048;15.390;2024-03-06T11:54:51;97491.47;;;11.08;100.00
12759;BME280;20944;47.048;15.390;2024-03-06T11:57:20;97511.94;;;11.24;100.00
12759;BME280;20944;47.048;15.390;2024-03-06T11:59:52;97461.97;;;11.02;100.00
12759;BME280;20944;47.048;15.390;2024-03-06T12:02:22;97510.41;;;11.43;100.00
12759;BME280;20944;47.048;15.390;2024-03-06T12:04:50;97509.47;;;11.46;100.00
12759;BME280;20944;47.048;15.390;2024-03-06T12:07:20;97512.09;;;11.46;100.00
12759;BME280;20944;47.048;15.390;2024-03-06T12:09:51;97481.03;;;11.33;100.00
12759;BME280;20944;47.048;15.390;2024-03-06T12:12:20;97504.09;;;11.50;100.00
12759;BME280;20944;47.048;15.390;2024-03-06T12:14:57;97504.31;;;11.43;100.00
12759;BME280;20944;47.048;15.390;2024-03-06T12:17:27;97498.72;;;11.53;100.00
12759;BME280;20944;47.048;15.390;2024-03-06T12:19:56;97493.69;;;11.72;100.00
12759;BME280;20944;47.048;15.390;2024-03-06T12:22:25;97482.81;;;11.84;100.00
12759;BME280;20944;47.048;15.390;2024-03-06T12:25:03;97493.88;;;11.93;99.68
12759;BME280;20944;47.048;15.390;2024-03-06T12:27:32;97493.78;;;11.96;100.00
12759;BME280;20944;47.048;15.390;2024-03-06T12:30:10;97453.34;;;11.75;100.00
12759;BME280;20944;47.048;15.390;2024-03-06T12:32:40;97413.03;;;11.77;100.00
12759;BME280;20944;47.048;15.390;2024-03-06T12:35:09;97482.84;;;12.31;100.00
12759;BME280;20944;47.048;15.390;2024-03-06T12:37:37;97483.53;;;12.36;98.19
12759;BME280;20944;47.048;15.390;2024-03-06T12:40:07;97479.88;;;12.40;97.36
12759;BME280;20944;47.048;15.390;2024-03-06T12:42:40;97483.88;;;12.51;97.92
12759;BME280;20944;47.048;15.390;2024-03-06T12:45:11;97439.31;;;12.24;97.18
12759;BME280;20944;47.048;15.390;2024-03-06T12:47:40;97485.19;;;12.62;98.89
12759;BME280;20944;47.048;15.390;2024-03-06T12:50:10;97437.69;;;12.45;98.30
12759;BME280;20944;47.048;15.390;2024-03-06T12:52:38;97438.91;;;12.80;96.74
12759;BME280;20944;47.048;15.390;2024-03-06T12:55:07;97446.44;;;13.11;92.84
12759;BME280;20944;47.048;15.390;2024-03-06T12:57:35;97468.63;;;13.68;91.46
12759;BME280;20944;47.048;15.390;2024-03-06T13:00:05;97464.31;;;14.07;88.67
12759;BME280;20944;47.048;15.390;2024-03-06T13:02:44;97414.22;;;14.08;84.77
12759;BME280;20944;47.048;15.390;2024-03-06T13:05:13;97455.47;;;14.28;84.81
12759;BME280;20944;47.048;15.390;2024-03-06T13:07:42;97438.44;;;14.35;83.86